createdAt,value
2023-03-28T00:00:25.757Z,0.98
2023-03-28T00:05:29.509Z,1.20
2023-03-28T00:10:32.691Z,1.00
2023-03-28T00:15:40.163Z,1.10
2023-03-28T00:20:44.463Z,1.00
2023-03-28T00:25:49.042Z,0.93
2023-03-28T00:30:53.247Z,0.70
2023-03-28T00:35:57.475Z,0.93
2023-03-28T00:41:01.059Z,0.95
2023-03-28T00:46:09.423Z,1.00
2023-03-28T00:51:14.763Z,0.63
2023-03-28T00:56:20.102Z,1.00
2023-03-28T01:01:24.538Z,0.93
2023-03-28T01:06:27.369Z,0.95
2023-03-28T01:11:30.857Z,0.90
2023-03-28T01:16:41.329Z,0.90
2023-03-28T01:22:21.873Z,1.00
2023-03-28T01:27:30.518Z,0.73
2023-03-28T01:33:18.437Z,0.90
2023-03-28T01:38:28.108Z,0.70
2023-03-28T01:43:42.415Z,0.80
2023-03-28T01:48:57.496Z,0.75
2023-03-28T01:54:06.172Z,0.88
2023-03-28T01:59:17.935Z,0.68
2023-03-28T02:04:23.142Z,0.90
2023-03-28T02:09:28.558Z,0.80
2023-03-28T02:14:37.319Z,0.80
2023-03-28T02:19:40.523Z,0.90
2023-03-28T02:24:50.405Z,0.80
2023-03-28T02:29:55.529Z,0.77
2023-03-28T02:34:58.393Z,0.90
2023-03-28T02:40:15.873Z,0.68
2023-03-28T02:45:46.646Z,0.60
2023-03-28T02:50:57.881Z,0.80
2023-03-28T02:56:06.830Z,0.80
2023-03-28T03:01:14.593Z,0.70
2023-03-28T03:06:17.984Z,0.68
2023-03-28T03:11:22.199Z,0.73
2023-03-28T03:16:25.037Z,0.70
2023-03-28T03:21:28.128Z,0.77
2023-03-28T03:26:32.953Z,0.70
2023-03-28T03:31:36.943Z,0.60
2023-03-28T03:36:40.533Z,0.80
2023-03-28T03:41:44.748Z,0.70
2023-03-28T03:46:47.672Z,0.55
2023-03-28T03:51:50.523Z,0.63
2023-03-28T03:56:54.736Z,0.63
2023-03-28T04:01:57.588Z,0.70
2023-03-28T04:07:02.309Z,0.60
2023-03-28T04:12:07.649Z,0.73
2023-03-28T04:17:13.613Z,0.70
2023-03-28T04:22:18.395Z,0.70
2023-03-28T04:27:26.277Z,0.60
2023-03-28T04:32:29.433Z,0.60
2023-03-28T04:37:32.519Z,0.60
2023-03-28T04:42:37.044Z,0.73
2023-03-28T04:47:40.217Z,0.65
2023-03-28T04:52:43.180Z,0.70
2023-03-28T04:57:47.335Z,0.77
2023-03-28T05:02:50.517Z,0.70
2023-03-28T05:07:53.374Z,0.80
2023-03-28T05:12:58.484Z,0.65
2023-03-28T05:18:01.385Z,1.00
2023-03-28T05:23:05.952Z,0.50
2023-03-28T05:28:10.491Z,0.70
2023-03-28T05:33:13.644Z,0.68
2023-03-28T05:38:16.830Z,0.70
2023-03-28T05:43:21.030Z,1.10
2023-03-28T05:48:23.818Z,0.80
2023-03-28T05:53:26.781Z,0.68
2023-03-28T05:58:31.684Z,5.15
2023-03-28T06:03:40.262Z,4.53
2023-03-28T06:08:43.236Z,4.18
2023-03-28T06:13:47.568Z,3.28
2023-03-28T06:18:50.403Z,3.20
2023-03-28T06:23:53.281Z,2.42
2023-03-28T06:28:57.475Z,2.70
2023-03-28T06:34:00.281Z,2.20
2023-03-28T06:39:03.210Z,3.70
2023-03-28T06:44:07.553Z,3.72
2023-03-28T06:49:10.594Z,3.20
2023-03-28T06:54:13.389Z,2.67
2023-03-28T06:59:17.724Z,2.83
2023-03-28T07:04:20.611Z,3.35
2023-03-28T07:09:23.417Z,2.60
2023-03-28T07:14:27.930Z,2.05
2023-03-28T07:19:30.998Z,1.83
2023-03-28T07:24:33.868Z,2.10
2023-03-28T07:29:38.824Z,2.17
2023-03-28T07:34:41.813Z,2.40
2023-03-28T07:39:44.816Z,1.90
2023-03-28T07:44:48.957Z,1.92
2023-03-28T07:49:52.437Z,1.95
2023-03-28T07:54:55.315Z,1.92
2023-03-28T07:59:59.447Z,1.83
2023-03-28T08:05:02.325Z,1.63
2023-03-28T08:10:06.114Z,1.88
2023-03-28T08:15:11.385Z,1.60
2023-03-28T08:20:14.596Z,1.58
2023-03-28T08:25:17.540Z,1.60
2023-03-28T08:30:21.831Z,1.98
2023-03-28T08:35:24.872Z,1.77
2023-03-28T08:40:30.135Z,1.45
2023-03-28T08:45:43.684Z,1.23
2023-03-28T08:50:49.127Z,1.80
2023-03-28T08:55:53.920Z,1.33
2023-03-28T09:00:58.277Z,1.30
2023-03-28T09:06:08.707Z,1.50
2023-03-28T09:11:24.287Z,1.20
2023-03-28T09:16:38.675Z,1.15
2023-03-28T09:22:02.304Z,1.40
2023-03-28T09:27:25.167Z,1.23
2023-03-28T09:32:34.763Z,1.50
2023-03-28T09:37:41.371Z,1.48
2023-03-28T09:42:52.804Z,1.20
2023-03-28T09:47:58.102Z,1.50
2023-03-28T09:53:02.016Z,1.67
2023-03-28T09:58:08.050Z,1.30
2023-03-28T10:03:23.200Z,1.38
2023-03-28T10:08:32.533Z,1.13
2023-03-28T10:13:40.614Z,1.15
2023-03-28T10:18:44.850Z,2.88
2023-03-28T10:23:59.216Z,2.33
2023-03-28T10:29:04.777Z,2.03
2023-03-28T10:34:26.752Z,1.80
2023-03-28T10:39:32.169Z,1.75
2023-03-28T10:44:36.813Z,1.77
2023-03-28T10:49:45.931Z,2.50
2023-03-28T10:55:03.482Z,2.10
2023-03-28T11:00:12.794Z,1.90
2023-03-28T11:05:28.876Z,1.63
2023-03-28T11:10:43.965Z,1.73
2023-03-28T11:15:57.667Z,1.80
2023-03-28T11:21:16.604Z,1.52
2023-03-28T11:26:26.805Z,1.60
2023-03-28T11:31:36.297Z,1.98
2023-03-28T11:36:48.718Z,2.20
2023-03-28T11:41:52.696Z,2.22
2023-03-28T11:46:58.733Z,1.73
2023-03-28T11:52:11.214Z,3.90
2023-03-28T11:57:21.736Z,2.70
2023-03-28T12:02:38.533Z,2.03
2023-03-28T12:07:49.277Z,1.90
2023-03-28T12:13:02.732Z,2.08
2023-03-28T12:18:11.478Z,2.00
2023-03-28T12:23:22.318Z,2.08
2023-03-28T12:28:29.297Z,1.67
2023-03-28T12:33:46.806Z,1.83
2023-03-28T12:38:57.720Z,1.75
2023-03-28T12:44:05.039Z,1.50
2023-03-28T12:49:13.873Z,1.60
2023-03-28T12:54:30.257Z,1.65
2023-03-28T12:59:58.771Z,1.88
2023-03-28T13:05:10.850Z,1.42
2023-03-28T13:10:24.070Z,1.35
2023-03-28T13:15:31.008Z,1.65
2023-03-28T13:20:33.873Z,1.52
2023-03-28T13:25:39.065Z,1.40
2023-03-28T13:30:43.633Z,1.55
2023-03-28T13:35:48.904Z,1.75
2023-03-28T13:40:55.876Z,1.42
2023-03-28T13:46:02.875Z,1.60
2023-03-28T13:51:09.251Z,1.60
2023-03-28T13:56:24.261Z,1.40
2023-03-28T14:01:34.700Z,1.30
2023-03-28T14:06:41.814Z,1.48
2023-03-28T14:11:46.607Z,1.30
2023-03-28T14:16:49.525Z,1.25
2023-03-28T14:21:53.557Z,1.55
2023-03-28T14:27:10.165Z,1.20
2023-03-28T14:32:25.671Z,0.98
2023-03-28T14:37:29.854Z,1.30
2023-03-28T14:42:34.127Z,0.90
2023-03-28T14:47:37.336Z,1.00
2023-03-28T14:52:44.476Z,1.13
2023-03-28T14:57:51.645Z,1.38
2023-03-28T15:02:55.741Z,0.95
2023-03-28T15:08:02.182Z,0.98
2023-03-28T15:13:12.676Z,1.35
2023-03-28T15:18:19.141Z,1.20
2023-03-28T15:23:27.029Z,1.30
2023-03-28T15:28:32.071Z,0.93
2023-03-28T15:33:35.910Z,1.05
2023-03-28T15:38:40.158Z,1.00
2023-03-28T15:43:58.741Z,1.15
2023-03-28T15:49:04.612Z,1.20
2023-03-28T15:54:09.356Z,1.00
2023-03-28T15:59:26.176Z,0.90
2023-03-28T16:04:29.586Z,0.85
2023-03-28T16:09:34.849Z,1.10
2023-03-28T16:14:48.762Z,0.80
2023-03-28T16:19:51.862Z,0.93
2023-03-28T16:24:55.675Z,1.20
2023-03-28T16:29:59.837Z,0.90
2023-03-28T16:35:02.747Z,0.90
2023-03-28T16:40:06.660Z,0.77
2023-03-28T16:45:13.052Z,1.05
2023-03-28T16:50:17.072Z,0.95
2023-03-28T16:55:20.399Z,0.93
2023-03-28T17:00:25.037Z,1.10
2023-03-28T17:05:27.866Z,4.15
2023-03-28T17:10:30.919Z,6.78
2023-03-28T17:15:35.523Z,4.93
2023-03-28T17:20:38.412Z,4.85
2023-03-28T17:25:53.850Z,4.10
2023-03-28T17:30:58.838Z,3.95
2023-03-28T17:36:12.277Z,3.53
2023-03-28T17:41:15.386Z,3.28
2023-03-28T17:46:20.182Z,3.00
2023-03-28T17:51:23.128Z,2.97
2023-03-28T17:56:26.240Z,2.55
2023-03-28T18:01:30.965Z,2.72
2023-03-28T18:06:34.276Z,2.80
2023-03-28T18:11:39.066Z,2.28
2023-03-28T18:16:44.887Z,2.40
2023-03-28T18:21:48.019Z,2.90
2023-03-28T18:26:51.092Z,2.30
2023-03-28T18:31:55.266Z,2.65
2023-03-28T18:37:00.189Z,3.10
2023-03-28T18:42:04.184Z,2.58
2023-03-28T18:47:08.546Z,2.60
2023-03-28T18:52:11.391Z,2.58
2023-03-28T18:57:15.018Z,2.50
2023-03-28T19:02:20.239Z,2.30
2023-03-28T19:07:23.401Z,2.40
2023-03-28T19:12:27.001Z,2.20
2023-03-28T19:17:31.906Z,1.92
2023-03-28T19:22:35.066Z,1.98
2023-03-28T19:27:38.453Z,2.05
2023-03-28T19:32:42.644Z,2.05
2023-03-28T19:37:45.516Z,2.10
2023-03-28T19:42:48.343Z,3.38
2023-03-28T19:47:52.654Z,2.40
2023-03-28T19:52:55.733Z,2.45
2023-03-28T19:57:58.605Z,2.20
2023-03-28T20:03:03.212Z,2.20
2023-03-28T20:08:08.650Z,2.10
2023-03-28T20:13:12.302Z,1.83
2023-03-28T20:18:19.721Z,2.30
2023-03-28T20:23:24.602Z,1.65
2023-03-28T20:28:31.844Z,1.92
2023-03-28T20:33:38.277Z,1.75
2023-03-28T20:38:41.391Z,1.92
2023-03-28T20:43:47.738Z,1.55
2023-03-28T20:48:54.548Z,1.45
2023-03-28T20:53:59.611Z,1.60
2023-03-28T20:59:04.285Z,1.70
2023-03-28T21:04:08.658Z,1.60
2023-03-28T21:09:15.249Z,1.60
2023-03-28T21:14:18.205Z,1.88
2023-03-28T21:19:22.526Z,1.50
2023-03-28T21:24:25.357Z,4.88
2023-03-28T21:29:28.637Z,3.50
2023-03-28T21:34:33.373Z,2.83
2023-03-28T21:39:36.278Z,2.20
2023-03-28T21:44:39.113Z,2.13
2023-03-28T21:49:45.974Z,2.50
2023-03-28T21:54:48.842Z,2.63
2023-03-28T21:59:51.767Z,1.98
2023-03-28T22:04:56.122Z,2.08
2023-03-28T22:10:01.135Z,1.80
2023-03-28T22:15:04.608Z,1.90
2023-03-28T22:20:10.181Z,2.20
2023-03-28T22:25:14.609Z,3.33
2023-03-28T22:30:17.496Z,2.63
2023-03-28T22:35:21.657Z,2.17
2023-03-28T22:40:24.560Z,2.65
2023-03-28T22:45:28.561Z,1.65
2023-03-28T22:50:33.665Z,1.70
2023-03-28T22:55:37.104Z,1.90
2023-03-28T23:00:40.065Z,1.83
2023-03-28T23:05:44.638Z,1.92
2023-03-28T23:10:48.078Z,1.88
2023-03-28T23:15:51.008Z,1.75
2023-03-28T23:20:55.195Z,2.00
2023-03-28T23:25:58.278Z,1.60
2023-03-28T23:31:02.294Z,1.50
2023-03-28T23:36:07.972Z,2.00
2023-03-28T23:41:11.198Z,1.58
2023-03-28T23:46:14.155Z,1.75
2023-03-28T23:51:18.553Z,1.70
2023-03-28T23:56:22.132Z,1.65
